createdAt,value
2023-01-28T00:02:37.347Z,-3.16
2023-01-28T00:08:16.971Z,-3.02
2023-01-28T00:13:40.652Z,-3.01
2023-01-28T00:19:02.763Z,-3.00
2023-01-28T00:24:24.516Z,-3.00
2023-01-28T00:29:46.536Z,-3.00
2023-01-28T00:35:08.816Z,-2.91
2023-01-28T00:40:31.417Z,-2.91
2023-01-28T00:45:53.508Z,-2.95
2023-01-28T00:51:23.419Z,-2.89
2023-01-28T00:56:45.656Z,-2.93
2023-01-28T01:02:13.026Z,-2.95
2023-01-28T01:07:44.464Z,-3.07
2023-01-28T01:13:09.087Z,-3.01
2023-01-28T01:18:31.286Z,-3.05
2023-01-28T01:23:54.662Z,-3.00
2023-01-28T01:29:16.643Z,-3.12
2023-01-28T01:34:38.663Z,-3.14
2023-01-28T01:40:02.598Z,-3.24
2023-01-28T01:45:26.495Z,-3.26
2023-01-28T01:50:59.416Z,-3.26
2023-01-28T01:56:25.612Z,-3.30
2023-01-28T02:01:49.233Z,-3.37
2023-01-28T02:07:15.718Z,-3.31
2023-01-28T02:12:43.312Z,-3.35
2023-01-28T02:18:05.840Z,-3.36
2023-01-28T02:23:40.415Z,-3.38
2023-01-28T02:29:40.926Z,-3.50
2023-01-28T02:35:13.490Z,-3.58
2023-01-28T02:41:00.624Z,-3.68
2023-01-28T02:46:44.057Z,-3.57
2023-01-28T02:52:45.882Z,-3.60
2023-01-28T02:58:18.599Z,-3.75
2023-01-28T03:04:06.356Z,-3.83
2023-01-28T03:09:28.454Z,-4.02
2023-01-28T03:15:14.889Z,-3.98
2023-01-28T03:21:26.975Z,-4.00
2023-01-28T03:27:42.176Z,-4.08
2023-01-28T03:33:26.531Z,-4.16
2023-01-28T03:38:49.112Z,-4.14
2023-01-28T03:44:31.555Z,-4.13
2023-01-28T03:49:58.223Z,-4.07
2023-01-28T03:55:20.346Z,-4.04
2023-01-28T04:00:42.993Z,-4.06
2023-01-28T04:06:09.680Z,-4.12
2023-01-28T04:11:49.045Z,-4.26
2023-01-28T04:17:17.867Z,-4.27
2023-01-28T04:22:42.326Z,-4.29
2023-01-28T04:28:07.066Z,-4.28
2023-01-28T04:33:32.187Z,-4.30
2023-01-28T04:39:12.216Z,-4.34
2023-01-28T04:44:48.815Z,-4.32
2023-01-28T04:50:29.495Z,-4.39
2023-01-28T04:56:30.095Z,-4.38
2023-01-28T05:01:52.618Z,-4.31
2023-01-28T05:07:16.052Z,-4.38
2023-01-28T05:12:38.346Z,-4.46
2023-01-28T05:18:02.587Z,-4.30
2023-01-28T05:23:30.485Z,-4.35
2023-01-28T05:28:54.721Z,-4.58
2023-01-28T05:34:17.193Z,-4.54
2023-01-28T05:39:39.432Z,-4.50
2023-01-28T05:45:02.053Z,-4.51
2023-01-28T05:50:53.379Z,-4.47
2023-01-28T05:56:20.218Z,-4.49
2023-01-28T06:01:42.461Z,-4.47
2023-01-28T06:07:04.847Z,-4.52
2023-01-28T06:12:28.185Z,-4.73
2023-01-28T06:18:08.553Z,-4.65
2023-01-28T06:23:31.332Z,-4.71
2023-01-28T06:28:53.715Z,-4.71
2023-01-28T06:34:47.736Z,-4.52
2023-01-28T06:40:10.548Z,-4.57
2023-01-28T06:45:34.209Z,-4.50
2023-01-28T06:50:57.143Z,-4.71
2023-01-28T06:56:19.273Z,-4.75
2023-01-28T07:01:42.092Z,-4.61
2023-01-28T07:07:04.365Z,-4.50
2023-01-28T07:12:26.249Z,-4.62
2023-01-28T07:17:48.305Z,-4.64
2023-01-28T07:23:13.227Z,-4.54
2023-01-28T07:28:35.533Z,-4.38
2023-01-28T07:33:57.314Z,-4.20
2023-01-28T07:39:19.017Z,-4.36
2023-01-28T07:44:41.135Z,-4.18
2023-01-28T07:50:03.068Z,-4.43
2023-01-28T07:55:26.345Z,-4.34
2023-01-28T08:00:48.602Z,-4.25
2023-01-28T08:06:12.153Z,-4.17
2023-01-28T08:11:38.727Z,-4.21
2023-01-28T08:17:03.375Z,-4.40
2023-01-28T08:22:29.866Z,-4.35
2023-01-28T08:27:52.335Z,-4.28
2023-01-28T08:33:16.965Z,-4.32
2023-01-28T08:38:39.068Z,-4.32
2023-01-28T08:44:01.908Z,-4.18
2023-01-28T08:49:27.464Z,-4.28
2023-01-28T08:54:50.015Z,-4.35
2023-01-28T09:00:17.282Z,-4.20
2023-01-28T09:05:51.610Z,-4.27
2023-01-28T09:11:18.795Z,-4.37
2023-01-28T09:16:40.903Z,-4.31
2023-01-28T09:22:07.014Z,-4.30
2023-01-28T09:27:31.496Z,-4.30
2023-01-28T09:32:55.226Z,-4.25
2023-01-28T09:38:16.936Z,-4.19
2023-01-28T09:44:19.940Z,-4.10
2023-01-28T09:49:46.640Z,-4.22
2023-01-28T09:55:33.792Z,-4.07
2023-01-28T10:01:07.111Z,-3.97
2023-01-28T10:06:37.314Z,-3.95
2023-01-28T10:12:43.654Z,-4.04
2023-01-28T10:18:17.091Z,-4.19
2023-01-28T10:24:06.415Z,-4.12
2023-01-28T10:29:34.398Z,-4.28
2023-01-28T10:35:00.289Z,-4.25
2023-01-28T10:40:22.747Z,-4.32
2023-01-28T10:45:49.759Z,-4.14
2023-01-28T10:51:11.905Z,-4.22
2023-01-28T10:56:36.838Z,-4.17
2023-01-28T11:02:20.758Z,-4.15
2023-01-28T11:07:49.046Z,-4.12
2023-01-28T11:13:26.946Z,-4.20
2023-01-28T11:18:56.296Z,-4.18
2023-01-28T11:24:28.145Z,-4.34
2023-01-28T11:29:51.191Z,-4.42
2023-01-28T11:35:29.015Z,-4.60
2023-01-28T11:40:53.668Z,-4.53
2023-01-28T11:46:46.725Z,-4.65
2023-01-28T11:52:28.478Z,-4.61
2023-01-28T11:58:13.002Z,-4.74
2023-01-28T12:03:44.141Z,-4.57
2023-01-28T12:09:32.851Z,-4.71
2023-01-28T12:15:22.604Z,-4.66
2023-01-28T12:20:48.215Z,-4.64
2023-01-28T12:26:20.385Z,-4.70
2023-01-28T12:31:45.142Z,-4.73
2023-01-28T12:38:27.306Z,-4.78
2023-01-28T12:44:15.922Z,-4.89
2023-01-28T12:50:16.770Z,-5.09
2023-01-28T12:55:50.142Z,-5.20
2023-01-28T13:01:17.406Z,-5.24
2023-01-28T13:06:50.156Z,-5.25
2023-01-28T13:12:13.936Z,-5.25
2023-01-28T13:17:35.723Z,-5.25
2023-01-28T13:23:07.218Z,-5.22
2023-01-28T13:28:34.134Z,-5.29
2023-01-28T13:33:56.083Z,-5.26
2023-01-28T13:39:24.654Z,-5.32
2023-01-28T13:44:46.776Z,-5.27
2023-01-28T13:50:16.588Z,-5.31
2023-01-28T13:55:45.622Z,-5.14
2023-01-28T14:01:46.403Z,-5.11
2023-01-28T14:07:41.816Z,-5.14
2023-01-28T14:13:13.606Z,-5.12
2023-01-28T14:18:43.630Z,-5.23
2023-01-28T14:24:06.719Z,-5.07
2023-01-28T14:29:55.977Z,-5.07
2023-01-28T14:35:34.728Z,-5.12
2023-01-28T14:40:58.455Z,-5.22
2023-01-28T14:46:44.530Z,-5.24
2023-01-28T14:52:32.114Z,-5.06
2023-01-28T17:04:26.706Z,-4.57
2023-01-28T17:09:48.710Z,-4.64
2023-01-28T17:15:11.220Z,-4.63
2023-01-28T17:20:37.769Z,-4.78
2023-01-28T17:26:11.270Z,-4.66
2023-01-28T17:31:33.737Z,-4.65
2023-01-28T17:36:56.139Z,-4.68
2023-01-28T17:42:17.788Z,-4.71
2023-01-28T17:47:39.500Z,-4.71
2023-01-28T17:53:01.698Z,-4.81
2023-01-28T17:58:23.601Z,-4.66
2023-01-28T18:03:45.683Z,-4.67
2023-01-28T18:09:07.764Z,-4.66
2023-01-28T18:14:30.056Z,-4.66
2023-01-28T18:19:52.524Z,-4.70
2023-01-28T18:25:19.188Z,-4.65
2023-01-28T18:30:41.290Z,-4.73
2023-01-28T18:36:06.339Z,-4.59
2023-01-28T18:41:28.391Z,-4.62
2023-01-28T18:46:50.874Z,-4.59
2023-01-28T18:52:15.378Z,-4.65
2023-01-28T18:57:37.553Z,-4.69
2023-01-28T19:03:01.645Z,-4.70
2023-01-28T19:08:27.086Z,-4.65
2023-01-28T19:13:49.308Z,-4.55
2023-01-28T19:19:14.564Z,-4.65
2023-01-28T19:24:37.608Z,-4.60
2023-01-28T19:29:59.809Z,-4.68
2023-01-28T19:35:22.289Z,-4.64
2023-01-28T19:40:45.521Z,-4.50
2023-01-28T19:46:08.270Z,-4.64
2023-01-28T19:51:30.808Z,-4.50
2023-01-28T19:56:53.172Z,-4.63
2023-01-28T20:02:15.238Z,-4.53
2023-01-28T20:07:37.470Z,-4.63
2023-01-28T20:12:59.302Z,-4.60
2023-01-28T20:18:21.262Z,-4.50
2023-01-28T20:23:43.100Z,-4.48
2023-01-28T20:29:08.246Z,-4.49
2023-01-28T20:34:30.223Z,-4.59
2023-01-28T20:39:52.783Z,-4.45
2023-01-28T20:45:14.968Z,-4.44
2023-01-28T20:50:36.874Z,-4.39
2023-01-28T20:55:59.761Z,-4.40
2023-01-28T21:01:25.256Z,-4.38
2023-01-28T21:06:47.392Z,-4.31
2023-01-28T21:12:09.186Z,-4.59
2023-01-28T21:17:32.243Z,-4.48
2023-01-28T21:22:55.039Z,-4.31
2023-01-28T21:28:17.654Z,-4.55
2023-01-28T21:33:39.944Z,-4.58
2023-01-28T21:39:03.947Z,-4.34
2023-01-28T21:44:26.319Z,-4.68
2023-01-28T21:49:55.510Z,-4.34
2023-01-28T21:55:18.061Z,-4.43
2023-01-28T22:00:39.708Z,-4.31
2023-01-28T22:06:01.884Z,-4.32
2023-01-28T22:11:24.008Z,-4.49
2023-01-28T22:16:46.104Z,-4.42
2023-01-28T22:22:07.840Z,-4.38
2023-01-28T22:27:29.511Z,-4.34
2023-01-28T22:32:51.599Z,-4.31
2023-01-28T22:38:13.861Z,-4.33
2023-01-28T22:43:36.108Z,-4.26
2023-01-28T22:48:58.559Z,-4.28
2023-01-28T22:54:20.869Z,-4.51
2023-01-28T22:59:48.460Z,-4.49
2023-01-28T23:05:21.404Z,-4.22
2023-01-28T23:10:50.731Z,-4.19
2023-01-28T23:16:30.641Z,-4.12
2023-01-28T23:22:11.347Z,-4.11
2023-01-28T23:27:33.201Z,-4.10
2023-01-28T23:32:58.189Z,-4.06
2023-01-28T23:38:23.161Z,-4.03
2023-01-28T23:43:45.052Z,-3.98
2023-01-28T23:49:07.147Z,-4.17
2023-01-28T23:54:29.066Z,-4.08
2023-01-28T23:59:54.649Z,-4.02
